Aeroporto :
LOGIN :

Iscrizione | Disclaimer

   EN    FR    IT 

 










Sommario :    VFR   VFR Marginale   IFR   IFR Intensivo   IFR Molto Intensivo
Visibilità : 
Base nubi : 
>= 8 km
>= 3000ft
5 / 8 km
1000 / 3000 ft
1500m / 5 km
500 / 1000 ft
800 / 1500m
200 / 500 ft
< 800m
< 200 ft
Simboli :   Temporali  Nebbia  Neve Forte  Precipitazioni Forti  Vento > 20 kt
SIGMETs :   Varie  Temporali  Ghiacco  Turbolenza  Onda orograficha  Ceneri Vulcaniche






- Altitudine del aeroporto : -15 ft
- Codice IATA : RTM


EHRD - Rotterdam Zestienhoven

ULTIMO METAR :
  • 290455Z AUTO 36010KT 330V040 9999 FEW028 04/M00 Q1029 NOSIG

METARs OBSOLETI :
  • 290425Z AUTO 36012KT 320V030 9999 FEW018CB 04/M00 Q1028 NOSIG
  • 290355Z AUTO 36011KT 320V040 9999 FEW015CB 04/00 Q1028 NOSIG
  • 290325Z AUTO 02016G29KT 350V050 9999 -RA FEW017 FEW021CB SCT040 BKN045 04/M01 Q1028 NOSIG
  • 290255Z AUTO 02013KT 330V050 9999 -RA FEW015CB SCT027 BKN046 04/00 Q1028 RERA REDZ NOSIG
  • 290225Z AUTO 01016KT 330V050 9999 -RA FEW022 SCT039 04/01 Q1028 RERA REDZ NOSIG
  • 290155Z AUTO 01014KT 340V040 9999 FEW035 SCT042 BKN046 04/01 Q1028 NOSIG

TAF TAF EHRD
Valido dal 29 a 00 ore il 30 a 06 ore UTC


282317Z 2900/3006 36013KT 9999 SCT030
PROB30
TEMPO 2900/2910 7000 -SHRAGS FEW025CB BKN030
BECMG 2906/2909 02022G35KT
BECMG 2916/2919 03015G28KT CAVOK
BECMG 2919/2922 36007KT



MetMap, La meteo Aeronautica in un colpo d'occhio ! - Copyright ORBIFLY Dicembre 2007 - Disclaimer

ORBIFLY MET'MAP TEAM :

Programmazione e sviluppo : Alexandra Zaïnal
Concezione : Baudouin d'Aumeries
Aiuto per la programmazione : Marc-Olivier Méhu
Supporto tecnico e logistico : Manuel Goepfert
Aiuto per la traduzione : Arnaldo La Scala

Contatto : metmap@orbifly.com




FONTI E CREDITI :

   NOAA